N9526G KISM-
Flight info
| Callsign | N9526G |
|---|---|
| Flight time | N/A |
| Altitude | |
| Route | VFR SW |
| Aircraft | C172/L-DOV/C |
Departure
| Time | 2026-04-22 00:06 |
|---|---|
| Airport | Kissimmee Gateway Airport (KISM) |
Arrival
| Time | N/A |
|---|---|
| Airport | - |
| Time | Latitude | Longitude | Altitude | Speed | Heading |
|---|---|---|---|---|---|
| 2026-04-21 23:57 | 28.29055 | -81.43380 | 89 ft | 0 kts | 277° |
| 2026-04-21 23:58 | 28.29059 | -81.43410 | 89 ft | 1 kts | 279° |
| 2026-04-21 23:59 | 28.29067 | -81.43421 | 90 ft | 5 kts | 323° |
| 2026-04-21 23:59 | 28.29078 | -81.43431 | 91 ft | 1 kts | 319° |
| 2026-04-21 23:59 | 28.29086 | -81.43456 | 90 ft | 9 kts | 270° |
| 2026-04-22 00:00 | 28.29070 | -81.43504 | 90 ft | 5 kts | 240° |
| 2026-04-22 00:00 | 28.29055 | -81.43530 | 91 ft | 3 kts | 236° |
| 2026-04-22 00:00 | 28.29051 | -81.43538 | 93 ft | 0 kts | 242° |
| 2026-04-22 00:01 | 28.29051 | -81.43539 | 93 ft | 1 kts | 241° |
| 2026-04-22 00:01 | 28.29048 | -81.43544 | 92 ft | 4 kts | 239° |
| 2026-04-22 00:02 | 28.29021 | -81.43601 | 94 ft | 9 kts | 269° |
| 2026-04-22 00:02 | 28.29062 | -81.43644 | 92 ft | 10 kts | 328° |
| 2026-04-22 00:02 | 28.29130 | -81.43693 | 93 ft | 13 kts | 329° |
| 2026-04-22 00:02 | 28.29210 | -81.43748 | 92 ft | 15 kts | 328° |
| 2026-04-22 00:03 | 28.29310 | -81.43818 | 88 ft | 20 kts | 328° |
| 2026-04-22 00:03 | 28.29433 | -81.43907 | 87 ft | 21 kts | 328° |
| 2026-04-22 00:03 | 28.29563 | -81.43995 | 85 ft | 22 kts | 330° |
| 2026-04-22 00:03 | 28.29658 | -81.44096 | 88 ft | 9 kts | 240° |
| 2026-04-22 00:04 | 28.29655 | -81.44101 | 87 ft | 0 kts | 231° |
| 2026-04-22 00:04 | 28.29653 | -81.44103 | 87 ft | 5 kts | 236° |
| 2026-04-22 00:04 | 28.29624 | -81.44157 | 90 ft | 12 kts | 208° |
| 2026-04-22 00:05 | 28.29518 | -81.44092 | 87 ft | 39 kts | 149° |
| 2026-04-22 00:05 | 28.29180 | -81.43842 | 179 ft | 68 kts | 135° |
| 2026-04-22 00:05 | 28.28737 | -81.43498 | 328 ft | 84 kts | 136° |
| 2026-04-22 00:05 | 28.28244 | -81.43111 | 538 ft | 89 kts | 142° |
| 2026-04-22 00:06 | 28.27715 | -81.42694 | 662 ft | 95 kts | 144° |
| 2026-04-22 00:06 | 28.27170 | -81.42285 | 886 ft | 93 kts | 139° |
| 2026-04-22 00:06 | 28.26647 | -81.41871 | 1122 ft | 90 kts | 136° |
| 2026-04-22 00:06 | 28.26129 | -81.41472 | 1275 ft | 90 kts | 137° |
| 2026-04-22 00:07 | 28.25601 | -81.41078 | 1449 ft | 91 kts | 137° |
| 2026-04-22 00:07 | 28.25046 | -81.40652 | 1503 ft | 103 kts | 138° |
| 2026-04-22 00:07 | 28.24430 | -81.40182 | 1508 ft | 110 kts | 139° |
| 2026-04-22 00:07 | 28.23779 | -81.39695 | 1512 ft | 115 kts | 144° |
| 2026-04-22 00:08 | 28.22961 | -81.39748 | 1499 ft | 134 kts | 205° |
| 2026-04-22 00:08 | 28.22483 | -81.40678 | 1515 ft | 145 kts | 261° |
| 2026-04-22 00:08 | 28.22358 | -81.41817 | 1503 ft | 147 kts | 262° |
| 2026-04-22 00:08 | 28.22243 | -81.42965 | 1502 ft | 146 kts | 263° |
| 2026-04-22 00:09 | 28.22129 | -81.44104 | 1504 ft | 145 kts | 263° |
| 2026-04-22 00:09 | 28.22013 | -81.45239 | 1507 ft | 146 kts | 263° |
| 2026-04-22 00:09 | 28.21884 | -81.46391 | 1506 ft | 148 kts | 259° |
| 2026-04-22 00:09 | 28.21661 | -81.47523 | 1503 ft | 145 kts | 257° |
| 2026-04-22 00:10 | 28.21474 | -81.48606 | 1490 ft | 136 kts | 256° |
| 2026-04-22 00:10 | 28.21308 | -81.49670 | 1433 ft | 141 kts | 258° |
| 2026-04-22 00:10 | 28.21138 | -81.50776 | 1339 ft | 131 kts | 252° |
| 2026-04-22 00:10 | 28.20994 | -81.51742 | 1402 ft | 133 kts | 261° |
| 2026-04-22 00:11 | 28.20875 | -81.52719 | 1236 ft | 116 kts | 258° |
| 2026-04-22 00:11 | 28.20737 | -81.53557 | 1248 ft | 107 kts | 258° |
| 2026-04-22 00:11 | 28.20602 | -81.54452 | 1293 ft | 122 kts | 259° |
| 2026-04-22 00:11 | 28.20455 | -81.55428 | 1247 ft | 126 kts | 257° |
| 2026-04-22 00:12 | 28.20310 | -81.56401 | 1237 ft | 124 kts | 258° |
| 2026-04-22 00:12 | 28.20170 | -81.57348 | 1227 ft | 121 kts | 258° |
| 2026-04-22 00:12 | 28.20027 | -81.58296 | 1231 ft | 122 kts | 259° |
| 2026-04-22 00:12 | 28.19888 | -81.59245 | 1240 ft | 123 kts | 257° |
| 2026-04-22 00:13 | 28.19746 | -81.60206 | 1239 ft | 124 kts | 257° |
| 2026-04-22 00:13 | 28.19603 | -81.61173 | 1241 ft | 124 kts | 260° |
| 2026-04-22 00:13 | 28.19460 | -81.62135 | 1234 ft | 125 kts | 259° |
| 2026-04-22 00:13 | 28.19316 | -81.63109 | 1240 ft | 129 kts | 259° |
| 2026-04-22 00:14 | 28.19165 | -81.64118 | 1231 ft | 129 kts | 261° |
| 2026-04-22 00:14 | 28.19019 | -81.65115 | 1241 ft | 128 kts | 261° |
| 2026-04-22 00:14 | 28.18869 | -81.66119 | 1229 ft | 130 kts | 261° |
| 2026-04-22 00:14 | 28.18719 | -81.67127 | 1235 ft | 130 kts | 260° |
| 2026-04-22 00:15 | 28.18569 | -81.68141 | 1222 ft | 130 kts | 259° |
| 2026-04-22 00:15 | 28.18419 | -81.69140 | 1215 ft | 127 kts | 261° |
| 2026-04-22 00:15 | 28.18271 | -81.70118 | 1216 ft | 125 kts | 259° |
| 2026-04-22 00:15 | 28.18128 | -81.71087 | 1216 ft | 124 kts | 261° |
| 2026-04-22 00:16 | 28.17982 | -81.72071 | 1218 ft | 128 kts | 258° |
| 2026-04-22 00:16 | 28.17838 | -81.73046 | 1224 ft | 127 kts | 261° |
| 2026-04-22 00:16 | 28.17691 | -81.74023 | 1218 ft | 124 kts | 258° |
| 2026-04-22 00:16 | 28.17547 | -81.74985 | 1206 ft | 120 kts | 263° |
| 2026-04-22 00:17 | 28.17433 | -81.75843 | 1207 ft | 114 kts | 262° |
| 2026-04-22 00:17 | 28.17282 | -81.76800 | 1221 ft | 128 kts | 260° |
| 2026-04-22 00:17 | 28.17109 | -81.77782 | 1254 ft | 127 kts | 259° |
| 2026-04-22 00:17 | 28.16981 | -81.78784 | 1193 ft | 128 kts | 261° |
| 2026-04-22 00:18 | 28.16837 | -81.79760 | 1189 ft | 122 kts | 253° |
| 2026-04-22 00:18 | 28.16438 | -81.80572 | 1199 ft | 119 kts | 223° |
| 2026-04-22 00:18 | 28.15826 | -81.81217 | 1194 ft | 120 kts | 217° |
| 2026-04-22 00:18 | 28.15215 | -81.81807 | 1153 ft | 110 kts | 215° |
| 2026-04-22 00:19 | 28.14634 | -81.82335 | 1187 ft | 110 kts | 211° |
| 2026-04-22 00:19 | 28.13979 | -81.82847 | 1181 ft | 116 kts | 201° |
| 2026-04-22 00:19 | 28.13232 | -81.83213 | 1199 ft | 115 kts | 189° |
| 2026-04-22 00:19 | 28.12474 | -81.83383 | 1231 ft | 110 kts | 174° |
| 2026-04-22 00:20 | 28.11721 | -81.83334 | 1216 ft | 101 kts | 161° |
| 2026-04-22 00:20 | 28.11036 | -81.83232 | 1211 ft | 108 kts | 175° |
| 2026-04-22 00:20 | 28.10303 | -81.83602 | 1230 ft | 123 kts | 217° |
| 2026-04-22 00:20 | 28.09835 | -81.84342 | 1217 ft | 117 kts | 245° |
| 2026-04-22 00:21 | 28.09550 | -81.85232 | 1147 ft | 123 kts | 247° |
| 2026-04-22 00:21 | 28.09263 | -81.86150 | 1154 ft | 127 kts | 251° |
| 2026-04-22 00:21 | 28.08985 | -81.87102 | 1199 ft | 127 kts | 249° |
| 2026-04-22 00:21 | 28.08751 | -81.88005 | 1236 ft | 119 kts | 251° |
| 2026-04-22 00:22 | 28.08564 | -81.88934 | 1196 ft | 122 kts | 258° |
| 2026-04-22 00:22 | 28.08479 | -81.89847 | 1149 ft | 114 kts | 264° |
| 2026-04-22 00:22 | 28.08378 | -81.90773 | 1172 ft | 120 kts | 262° |
| 2026-04-22 00:22 | 28.08268 | -81.91733 | 1117 ft | 128 kts | 259° |
| 2026-04-22 00:23 | 28.08149 | -81.92700 | 1047 ft | 127 kts | 260° |
| 2026-04-22 00:23 | 28.08064 | -81.93581 | 1148 ft | 107 kts | 261° |
| 2026-04-22 00:23 | 28.07976 | -81.94444 | 1167 ft | 111 kts | 264° |
| 2026-04-22 00:23 | 28.07889 | -81.95323 | 1207 ft | 116 kts | 264° |
| 2026-04-22 00:24 | 28.07794 | -81.96257 | 1219 ft | 120 kts | 265° |
| 2026-04-22 00:24 | 28.07683 | -81.97188 | 1252 ft | 118 kts | 259° |
| 2026-04-22 00:24 | 28.07531 | -81.98101 | 1230 ft | 118 kts | 245° |
| 2026-04-22 00:24 | 28.07135 | -81.98904 | 1201 ft | 116 kts | 228° |
| 2026-04-22 00:25 | 28.06639 | -81.99595 | 1185 ft | 112 kts | 225° |
| 2026-04-22 00:25 | 28.06124 | -82.00263 | 1168 ft | 113 kts | 224° |
| 2026-04-22 00:25 | 28.05595 | -82.00952 | 1105 ft | 120 kts | 224° |
| 2026-04-22 00:25 | 28.05088 | -82.01673 | 1148 ft | 116 kts | 227° |
| 2026-04-22 00:26 | 28.04593 | -82.02388 | 1163 ft | 115 kts | 224° |
| 2026-04-22 00:26 | 28.04094 | -82.03110 | 1145 ft | 118 kts | 227° |
| 2026-04-22 00:26 | 28.03654 | -82.03872 | 1167 ft | 112 kts | 229° |
| 2026-04-22 00:26 | 28.03291 | -82.04630 | 1217 ft | 109 kts | 251° |
| 2026-04-22 00:27 | 28.03106 | -82.05500 | 1312 ft | 114 kts | 246° |
| 2026-04-22 00:27 | 28.02506 | -82.05653 | 1434 ft | 91 kts | 143° |